In Rescue
 
Open Full Screen Window  High Contrast Mode
Wind Gusting 17 knots
12
November 29, 2022 9:28 AM CST
Weather Information
Wind Direction
  310 °
Wind Speed
  12 kt (14 mph)
Wind Gust
  17 kt (20 mph)
Altimeter
29.76 in
Visibility
10 SM
Temperature
-07° C
19° F
Dewpoint
-13° C
F
Humidity
63%
1hr Rain Fall
00.00 in.
24hr Rain Fall
00.00 in.
Sky Condition
Missing
VFR

METAR KMOX 291528Z AUTO 31012G17KT 10SM M07/M13 A2976 RMK AO2

FAA Disclaimer: The data displayed is for advisory purposes only and is not to be used for flight planning or operations.
Missing Cloud Data